Terminal Aerodrome Forecast
Issued by NWS Charleston, SC

Home | Current Version | Previous Version | Text Only | Print | Product List | Glossary On
Versions: 1 2 3 4 5 6 7 8 9 10 11 12 13 14 15 16 17 18 19 20 21 22 23 24 25
000
FTUS42 KCHS 030539
TAFSAV
TAF
KSAV 030539Z 0306/0406 VRB03KT P6SM VCSH SCT020 BKN035
      TEMPO 0306/0310 5SM SHRA BR SCT015 BKN025
     FM031000 VRB03KT P6SM BKN025
     FM031200 17009KT P6SM VCSH SCT025 BKN050
     FM032300 15005KT P6SM SCT025=

USA.gov is the U.S. government's official web portal to all federal, state and local government web resources and services.